sensor_id;sensor_type;location;lat;lon;timestamp;temperature;humidity
48728;DHT22;34527;45.618;5.130;2024-02-23T00:01:56;8.70;99.90
48728;DHT22;34527;45.618;5.130;2024-02-23T00:04:22;8.70;99.90
48728;DHT22;34527;45.618;5.130;2024-02-23T00:06:47;8.70;99.90
48728;DHT22;34527;45.618;5.130;2024-02-23T00:09:13;8.60;99.90
48728;DHT22;34527;45.618;5.130;2024-02-23T00:11:40;8.60;99.90
48728;DHT22;34527;45.618;5.130;2024-02-23T00:14:10;8.60;99.90
48728;DHT22;34527;45.618;5.130;2024-02-23T00:16:41;8.50;99.90
48728;DHT22;34527;45.618;5.130;2024-02-23T00:19:08;8.50;99.90
48728;DHT22;34527;45.618;5.130;2024-02-23T00:21:35;8.50;99.90
48728;DHT22;34527;45.618;5.130;2024-02-23T00:24:01;8.40;99.90
48728;DHT22;34527;45.618;5.130;2024-02-23T00:26:26;8.40;99.90
48728;DHT22;34527;45.618;5.130;2024-02-23T00:28:54;8.40;99.90
48728;DHT22;34527;45.618;5.130;2024-02-23T00:31:20;8.40;99.90
48728;DHT22;34527;45.618;5.130;2024-02-23T00:33:45;8.40;99.90
48728;DHT22;34527;45.618;5.130;2024-02-23T00:36:11;8.30;99.90
48728;DHT22;34527;45.618;5.130;2024-02-23T00:38:36;8.30;99.90
48728;DHT22;34527;45.618;5.130;2024-02-23T00:41:02;8.20;99.90
48728;DHT22;34527;45.618;5.130;2024-02-23T00:43:28;8.20;99.90
48728;DHT22;34527;45.618;5.130;2024-02-23T00:45:56;8.20;99.90
48728;DHT22;34527;45.618;5.130;2024-02-23T00:48:22;8.20;99.90
48728;DHT22;34527;45.618;5.130;2024-02-23T00:50:48;8.20;99.90
48728;DHT22;34527;45.618;5.130;2024-02-23T00:53:13;8.20;99.90
48728;DHT22;34527;45.618;5.130;2024-02-23T00:55:39;8.10;99.90
48728;DHT22;34527;45.618;5.130;2024-02-23T00:58:04;8.10;99.90
48728;DHT22;34527;45.618;5.130;2024-02-23T01:00:30;8.00;99.90
48728;DHT22;34527;45.618;5.130;2024-02-23T01:02:55;7.90;99.90
48728;DHT22;34527;45.618;5.130;2024-02-23T01:05:23;8.00;99.90
48728;DHT22;34527;45.618;5.130;2024-02-23T01:07:48;7.90;99.90
48728;DHT22;34527;45.618;5.130;2024-02-23T01:10:14;7.90;99.90
48728;DHT22;34527;45.618;5.130;2024-02-23T01:12:39;7.80;99.90
48728;DHT22;34527;45.618;5.130;2024-02-23T01:15:05;7.70;99.90
48728;DHT22;34527;45.618;5.130;2024-02-23T01:17:31;7.50;99.90
48728;DHT22;34527;45.618;5.130;2024-02-23T01:19:56;7.40;99.90
48728;DHT22;34527;45.618;5.130;2024-02-23T01:22:22;7.30;99.90
48728;DHT22;34527;45.618;5.130;2024-02-23T01:24:48;7.30;99.90
48728;DHT22;34527;45.618;5.130;2024-02-23T01:27:13;7.30;99.90
48728;DHT22;34527;45.618;5.130;2024-02-23T01:29:39;7.20;99.90
48728;DHT22;34527;45.618;5.130;2024-02-23T01:32:05;7.10;99.90
48728;DHT22;34527;45.618;5.130;2024-02-23T01:34:30;6.90;99.90
48728;DHT22;34527;45.618;5.130;2024-02-23T01:36:56;6.70;99.90
48728;DHT22;34527;45.618;5.130;2024-02-23T01:39:22;6.60;99.90
48728;DHT22;34527;45.618;5.130;2024-02-23T01:41:47;6.50;99.90
48728;DHT22;34527;45.618;5.130;2024-02-23T01:44:13;6.50;99.90
48728;DHT22;34527;45.618;5.130;2024-02-23T01:46:40;6.30;99.90
48728;DHT22;34527;45.618;5.130;2024-02-23T01:49:08;6.10;99.90
48728;DHT22;34527;45.618;5.130;2024-02-23T01:51:35;6.10;99.90
48728;DHT22;34527;45.618;5.130;2024-02-23T01:54:01;6.10;99.90
48728;DHT22;34527;45.618;5.130;2024-02-23T01:56:27;6.10;99.90
48728;DHT22;34527;45.618;5.130;2024-02-23T01:58:53;6.00;99.90
48728;DHT22;34527;45.618;5.130;2024-02-23T02:01:20;5.80;99.90
48728;DHT22;34527;45.618;5.130;2024-02-23T02:03:46;5.70;99.90
48728;DHT22;34527;45.618;5.130;2024-02-23T02:06:11;5.70;99.90
48728;DHT22;34527;45.618;5.130;2024-02-23T02:08:38;5.70;99.90
48728;DHT22;34527;45.618;5.130;2024-02-23T02:11:04;5.70;99.90
48728;DHT22;34527;45.618;5.130;2024-02-23T02:13:30;5.70;99.90
48728;DHT22;34527;45.618;5.130;2024-02-23T02:15:59;5.70;99.90
48728;DHT22;34527;45.618;5.130;2024-02-23T02:18:25;5.70;99.90
48728;DHT22;34527;45.618;5.130;2024-02-23T02:20:54;5.60;99.90
48728;DHT22;34527;45.618;5.130;2024-02-23T02:23:20;5.60;99.90
48728;DHT22;34527;45.618;5.130;2024-02-23T02:25:45;5.50;99.90
48728;DHT22;34527;45.618;5.130;2024-02-23T02:28:17;5.30;99.90
48728;DHT22;34527;45.618;5.130;2024-02-23T02:30:43;5.20;99.90
48728;DHT22;34527;45.618;5.130;2024-02-23T02:33:08;5.20;99.90
48728;DHT22;34527;45.618;5.130;2024-02-23T02:35:34;5.10;99.90
48728;DHT22;34527;45.618;5.130;2024-02-23T02:37:59;5.10;99.90
48728;DHT22;34527;45.618;5.130;2024-02-23T02:40:25;4.90;99.90
48728;DHT22;34527;45.618;5.130;2024-02-23T02:42:50;5.00;99.90
48728;DHT22;34527;45.618;5.130;2024-02-23T02:45:16;4.80;99.90
48728;DHT22;34527;45.618;5.130;2024-02-23T02:47:42;4.70;99.90
48728;DHT22;34527;45.618;5.130;2024-02-23T02:50:08;4.70;99.90
48728;DHT22;34527;45.618;5.130;2024-02-23T02:52:34;4.70;99.90
48728;DHT22;34527;45.618;5.130;2024-02-23T02:55:00;4.60;99.90
48728;DHT22;34527;45.618;5.130;2024-02-23T02:57:25;4.50;99.90
48728;DHT22;34527;45.618;5.130;2024-02-23T02:59:51;4.50;99.90
48728;DHT22;34527;45.618;5.130;2024-02-23T03:02:17;4.60;99.90
48728;DHT22;34527;45.618;5.130;2024-02-23T03:04:49;4.50;99.90
48728;DHT22;34527;45.618;5.130;2024-02-23T03:07:18;4.70;99.90
48728;DHT22;34527;45.618;5.130;2024-02-23T03:09:44;4.80;99.90
48728;DHT22;34527;45.618;5.130;2024-02-23T03:12:10;4.60;99.90
48728;DHT22;34527;45.618;5.130;2024-02-23T03:14:36;4.50;99.90
48728;DHT22;34527;45.618;5.130;2024-02-23T03:17:08;4.40;99.90
48728;DHT22;34527;45.618;5.130;2024-02-23T03:19:35;4.40;99.90
48728;DHT22;34527;45.618;5.130;2024-02-23T03:22:00;4.40;99.90
48728;DHT22;34527;45.618;5.130;2024-02-23T03:24:26;4.40;99.90
48728;DHT22;34527;45.618;5.130;2024-02-23T03:26:52;4.40;99.90
48728;DHT22;34527;45.618;5.130;2024-02-23T03:29:17;4.40;99.90
48728;DHT22;34527;45.618;5.130;2024-02-23T03:31:43;4.40;99.90
48728;DHT22;34527;45.618;5.130;2024-02-23T03:34:08;4.40;99.90
48728;DHT22;34527;45.618;5.130;2024-02-23T03:36:34;4.40;99.90
48728;DHT22;34527;45.618;5.130;2024-02-23T03:39:00;4.30;99.90
48728;DHT22;34527;45.618;5.130;2024-02-23T03:41:26;4.10;99.90
48728;DHT22;34527;45.618;5.130;2024-02-23T03:43:52;4.00;99.90
48728;DHT22;34527;45.618;5.130;2024-02-23T03:46:17;4.00;99.90
48728;DHT22;34527;45.618;5.130;2024-02-23T03:48:44;4.00;99.90
48728;DHT22;34527;45.618;5.130;2024-02-23T03:51:10;3.90;99.90
48728;DHT22;34527;45.618;5.130;2024-02-23T03:53:35;3.90;99.90
48728;DHT22;34527;45.618;5.130;2024-02-23T03:56:01;3.90;99.90
48728;DHT22;34527;45.618;5.130;2024-02-23T03:58:26;3.90;99.90
48728;DHT22;34527;45.618;5.130;2024-02-23T04:00:52;3.80;99.90
48728;DHT22;34527;45.618;5.130;2024-02-23T04:03:18;3.80;99.90
48728;DHT22;34527;45.618;5.130;2024-02-23T04:05:44;3.80;99.90
48728;DHT22;34527;45.618;5.130;2024-02-23T04:08:09;3.80;99.90
48728;DHT22;34527;45.618;5.130;2024-02-23T04:10:35;3.70;99.90
48728;DHT22;34527;45.618;5.130;2024-02-23T04:13:01;3.70;99.90
48728;DHT22;34527;45.618;5.130;2024-02-23T04:15:26;3.70;99.90
48728;DHT22;34527;45.618;5.130;2024-02-23T04:17:52;3.70;99.90
48728;DHT22;34527;45.618;5.130;2024-02-23T04:20:17;3.60;99.90
48728;DHT22;34527;45.618;5.130;2024-02-23T04:22:43;3.60;99.90
48728;DHT22;34527;45.618;5.130;2024-02-23T04:25:09;3.70;99.90
48728;DHT22;34527;45.618;5.130;2024-02-23T04:27:34;3.80;99.90
48728;DHT22;34527;45.618;5.130;2024-02-23T04:30:00;3.80;99.90
48728;DHT22;34527;45.618;5.130;2024-02-23T04:32:26;3.70;99.90
48728;DHT22;34527;45.618;5.130;2024-02-23T04:34:52;3.60;99.90
48728;DHT22;34527;45.618;5.130;2024-02-23T04:37:17;3.60;99.90
48728;DHT22;34527;45.618;5.130;2024-02-23T04:39:46;3.50;99.90
48728;DHT22;34527;45.618;5.130;2024-02-23T04:42:11;3.40;99.90
48728;DHT22;34527;45.618;5.130;2024-02-23T04:44:37;3.40;99.90
48728;DHT22;34527;45.618;5.130;2024-02-23T04:47:02;3.40;99.90
48728;DHT22;34527;45.618;5.130;2024-02-23T04:49:28;3.30;99.90
48728;DHT22;34527;45.618;5.130;2024-02-23T04:51:54;3.40;99.90
48728;DHT22;34527;45.618;5.130;2024-02-23T04:54:20;3.40;99.90
48728;DHT22;34527;45.618;5.130;2024-02-23T04:56:46;3.40;99.90
48728;DHT22;34527;45.618;5.130;2024-02-23T04:59:13;3.50;99.90
48728;DHT22;34527;45.618;5.130;2024-02-23T05:01:38;3.60;99.90
48728;DHT22;34527;45.618;5.130;2024-02-23T05:04:04;3.70;99.90
48728;DHT22;34527;45.618;5.130;2024-02-23T05:06:30;3.70;99.90
48728;DHT22;34527;45.618;5.130;2024-02-23T05:08:56;3.70;99.90
48728;DHT22;34527;45.618;5.130;2024-02-23T05:11:21;3.80;99.90
48728;DHT22;34527;45.618;5.130;2024-02-23T05:13:47;3.80;99.90
48728;DHT22;34527;45.618;5.130;2024-02-23T05:16:16;3.80;99.90
48728;DHT22;34527;45.618;5.130;2024-02-23T05:18:43;3.70;99.90
48728;DHT22;34527;45.618;5.130;2024-02-23T05:21:09;3.50;99.90
48728;DHT22;34527;45.618;5.130;2024-02-23T05:23:35;3.50;99.90
48728;DHT22;34527;45.618;5.130;2024-02-23T05:26:01;3.50;99.90
48728;DHT22;34527;45.618;5.130;2024-02-23T05:28:26;3.60;99.90
48728;DHT22;34527;45.618;5.130;2024-02-23T05:30:54;3.50;99.90
48728;DHT22;34527;45.618;5.130;2024-02-23T05:33:19;3.50;99.90
48728;DHT22;34527;45.618;5.130;2024-02-23T05:35:46;3.40;99.90
48728;DHT22;34527;45.618;5.130;2024-02-23T05:38:14;3.40;99.90
48728;DHT22;34527;45.618;5.130;2024-02-23T05:40:40;3.30;99.90
48728;DHT22;34527;45.618;5.130;2024-02-23T05:43:05;3.30;99.90
48728;DHT22;34527;45.618;5.130;2024-02-23T05:45:31;3.30;99.90
48728;DHT22;34527;45.618;5.130;2024-02-23T05:47:57;3.30;99.90
48728;DHT22;34527;45.618;5.130;2024-02-23T05:50:23;3.30;99.90
48728;DHT22;34527;45.618;5.130;2024-02-23T05:52:48;3.10;99.90
48728;DHT22;34527;45.618;5.130;2024-02-23T05:55:14;3.10;99.90
48728;DHT22;34527;45.618;5.130;2024-02-23T05:57:40;3.00;99.90
48728;DHT22;34527;45.618;5.130;2024-02-23T06:00:06;2.80;99.90
48728;DHT22;34527;45.618;5.130;2024-02-23T06:02:33;2.90;99.90
48728;DHT22;34527;45.618;5.130;2024-02-23T06:04:58;2.90;99.90
48728;DHT22;34527;45.618;5.130;2024-02-23T06:07:24;3.00;99.90
48728;DHT22;34527;45.618;5.130;2024-02-23T06:09:55;3.00;99.90
48728;DHT22;34527;45.618;5.130;2024-02-23T06:12:22;2.90;99.90
48728;DHT22;34527;45.618;5.130;2024-02-23T06:14:47;2.90;99.90
48728;DHT22;34527;45.618;5.130;2024-02-23T06:17:13;2.80;99.90
48728;DHT22;34527;45.618;5.130;2024-02-23T06:19:38;2.90;99.90
48728;DHT22;34527;45.618;5.130;2024-02-23T06:22:04;2.90;99.90
48728;DHT22;34527;45.618;5.130;2024-02-23T06:24:30;3.00;99.90
48728;DHT22;34527;45.618;5.130;2024-02-23T06:26:55;2.90;99.90
48728;DHT22;34527;45.618;5.130;2024-02-23T06:29:23;3.00;99.90
48728;DHT22;34527;45.618;5.130;2024-02-23T06:31:48;3.00;99.90
48728;DHT22;34527;45.618;5.130;2024-02-23T06:34:15;3.10;99.90
48728;DHT22;34527;45.618;5.130;2024-02-23T06:36:41;3.00;99.90
48728;DHT22;34527;45.618;5.130;2024-02-23T06:39:07;3.10;99.90
48728;DHT22;34527;45.618;5.130;2024-02-23T06:41:34;3.20;99.90
48728;DHT22;34527;45.618;5.130;2024-02-23T06:43:59;3.10;99.90
48728;DHT22;34527;45.618;5.130;2024-02-23T06:46:25;3.10;99.90
48728;DHT22;34527;45.618;5.130;2024-02-23T06:48:51;3.10;99.90
48728;DHT22;34527;45.618;5.130;2024-02-23T06:51:16;3.10;99.90
48728;DHT22;34527;45.618;5.130;2024-02-23T06:53:42;3.20;99.90
48728;DHT22;34527;45.618;5.130;2024-02-23T06:56:08;3.20;99.90
48728;DHT22;34527;45.618;5.130;2024-02-23T06:58:34;3.30;99.90
48728;DHT22;34527;45.618;5.130;2024-02-23T07:01:00;3.30;99.90
48728;DHT22;34527;45.618;5.130;2024-02-23T07:03:26;3.30;99.90
48728;DHT22;34527;45.618;5.130;2024-02-23T07:05:52;3.30;99.90
48728;DHT22;34527;45.618;5.130;2024-02-23T07:08:18;3.50;99.90
48728;DHT22;34527;45.618;5.130;2024-02-23T07:10:43;3.60;99.90
48728;DHT22;34527;45.618;5.130;2024-02-23T07:13:09;3.80;99.90
48728;DHT22;34527;45.618;5.130;2024-02-23T07:15:35;3.80;99.90
48728;DHT22;34527;45.618;5.130;2024-02-23T07:18:01;3.90;99.90
48728;DHT22;34527;45.618;5.130;2024-02-23T07:20:27;3.80;99.90
48728;DHT22;34527;45.618;5.130;2024-02-23T07:22:53;3.90;99.90
48728;DHT22;34527;45.618;5.130;2024-02-23T07:25:19;3.90;99.90
48728;DHT22;34527;45.618;5.130;2024-02-23T07:27:48;4.00;99.90
48728;DHT22;34527;45.618;5.130;2024-02-23T07:30:17;4.00;99.90
48728;DHT22;34527;45.618;5.130;2024-02-23T07:32:43;4.00;99.90
48728;DHT22;34527;45.618;5.130;2024-02-23T07:35:10;4.10;99.90
48728;DHT22;34527;45.618;5.130;2024-02-23T07:37:36;4.00;99.90
48728;DHT22;34527;45.618;5.130;2024-02-23T07:40:02;4.10;99.90
48728;DHT22;34527;45.618;5.130;2024-02-23T07:42:30;4.30;99.90
48728;DHT22;34527;45.618;5.130;2024-02-23T07:44:55;4.30;99.90
48728;DHT22;34527;45.618;5.130;2024-02-23T07:47:21;4.40;99.90
48728;DHT22;34527;45.618;5.130;2024-02-23T07:49:47;4.50;99.90
48728;DHT22;34527;45.618;5.130;2024-02-23T07:52:13;4.60;99.90
48728;DHT22;34527;45.618;5.130;2024-02-23T07:54:38;4.60;99.90
48728;DHT22;34527;45.618;5.130;2024-02-23T07:57:04;4.70;99.90
48728;DHT22;34527;45.618;5.130;2024-02-23T07:59:30;4.80;99.90
48728;DHT22;34527;45.618;5.130;2024-02-23T08:01:56;4.90;99.90
48728;DHT22;34527;45.618;5.130;2024-02-23T08:04:21;5.00;99.90
48728;DHT22;34527;45.618;5.130;2024-02-23T08:06:48;5.10;99.90
48728;DHT22;34527;45.618;5.130;2024-02-23T08:09:14;5.20;99.90
48728;DHT22;34527;45.618;5.130;2024-02-23T08:11:40;5.30;99.90
48728;DHT22;34527;45.618;5.130;2024-02-23T08:14:05;5.50;99.90
48728;DHT22;34527;45.618;5.130;2024-02-23T08:16:31;5.60;99.90
48728;DHT22;34527;45.618;5.130;2024-02-23T08:18:57;5.80;99.90
48728;DHT22;34527;45.618;5.130;2024-02-23T08:21:23;5.90;99.90
48728;DHT22;34527;45.618;5.130;2024-02-23T08:23:49;6.10;99.90
48728;DHT22;34527;45.618;5.130;2024-02-23T08:26:14;6.20;99.90
48728;DHT22;34527;45.618;5.130;2024-02-23T08:28:40;6.30;99.90
48728;DHT22;34527;45.618;5.130;2024-02-23T08:31:06;6.40;99.90
48728;DHT22;34527;45.618;5.130;2024-02-23T08:33:31;6.50;99.90
48728;DHT22;34527;45.618;5.130;2024-02-23T08:35:57;6.70;99.90
48728;DHT22;34527;45.618;5.130;2024-02-23T08:38:22;6.80;99.90
48728;DHT22;34527;45.618;5.130;2024-02-23T08:40:48;6.90;99.90
48728;DHT22;34527;45.618;5.130;2024-02-23T08:43:14;7.00;99.90
48728;DHT22;34527;45.618;5.130;2024-02-23T08:45:40;7.10;99.90
48728;DHT22;34527;45.618;5.130;2024-02-23T08:48:06;7.10;99.90
48728;DHT22;34527;45.618;5.130;2024-02-23T08:50:32;7.20;99.90
48728;DHT22;34527;45.618;5.130;2024-02-23T08:52:58;7.20;99.90
48728;DHT22;34527;45.618;5.130;2024-02-23T08:55:23;7.20;99.90
48728;DHT22;34527;45.618;5.130;2024-02-23T08:57:49;7.20;99.90
48728;DHT22;34527;45.618;5.130;2024-02-23T09:00:15;7.30;99.90
48728;DHT22;34527;45.618;5.130;2024-02-23T09:02:41;7.40;99.90
48728;DHT22;34527;45.618;5.130;2024-02-23T09:05:09;7.50;99.90
48728;DHT22;34527;45.618;5.130;2024-02-23T09:07:35;7.60;99.90
48728;DHT22;34527;45.618;5.130;2024-02-23T09:10:02;7.70;99.90
48728;DHT22;34527;45.618;5.130;2024-02-23T09:12:28;7.80;99.90
48728;DHT22;34527;45.618;5.130;2024-02-23T09:14:54;7.90;99.90
48728;DHT22;34527;45.618;5.130;2024-02-23T09:17:20;8.00;99.90
48728;DHT22;34527;45.618;5.130;2024-02-23T09:19:46;8.10;99.90
48728;DHT22;34527;45.618;5.130;2024-02-23T09:22:12;8.30;99.90
48728;DHT22;34527;45.618;5.130;2024-02-23T09:24:41;8.40;99.90
48728;DHT22;34527;45.618;5.130;2024-02-23T09:27:07;8.50;99.90
48728;DHT22;34527;45.618;5.130;2024-02-23T09:29:33;8.60;99.90
48728;DHT22;34527;45.618;5.130;2024-02-23T09:31:59;8.70;99.90
48728;DHT22;34527;45.618;5.130;2024-02-23T09:34:25;8.90;99.90
48728;DHT22;34527;45.618;5.130;2024-02-23T09:36:51;9.00;99.90
48728;DHT22;34527;45.618;5.130;2024-02-23T09:39:17;9.10;99.90
48728;DHT22;34527;45.618;5.130;2024-02-23T09:41:42;9.20;99.90
48728;DHT22;34527;45.618;5.130;2024-02-23T09:44:09;9.30;99.90
48728;DHT22;34527;45.618;5.130;2024-02-23T09:46:37;9.40;99.90
48728;DHT22;34527;45.618;5.130;2024-02-23T09:49:03;9.40;99.90
48728;DHT22;34527;45.618;5.130;2024-02-23T09:51:29;9.50;99.90
48728;DHT22;34527;45.618;5.130;2024-02-23T09:53:55;9.50;99.90
48728;DHT22;34527;45.618;5.130;2024-02-23T09:56:27;9.50;99.90
48728;DHT22;34527;45.618;5.130;2024-02-23T09:59:00;9.70;99.90
48728;DHT22;34527;45.618;5.130;2024-02-23T10:01:31;9.70;99.90
48728;DHT22;34527;45.618;5.130;2024-02-23T10:03:59;9.80;99.90
48728;DHT22;34527;45.618;5.130;2024-02-23T10:06:25;9.90;99.90
48728;DHT22;34527;45.618;5.130;2024-02-23T10:08:51;10.00;99.90
48728;DHT22;34527;45.618;5.130;2024-02-23T10:11:21;10.00;99.90
48728;DHT22;34527;45.618;5.130;2024-02-23T10:13:48;10.00;99.90
48728;DHT22;34527;45.618;5.130;2024-02-23T10:16:15;10.00;99.90
48728;DHT22;34527;45.618;5.130;2024-02-23T10:18:41;10.00;99.90
48728;DHT22;34527;45.618;5.130;2024-02-23T10:21:07;10.10;99.90
48728;DHT22;34527;45.618;5.130;2024-02-23T10:23:32;10.20;99.90
48728;DHT22;34527;45.618;5.130;2024-02-23T10:25:58;10.20;99.90
48728;DHT22;34527;45.618;5.130;2024-02-23T10:28:23;10.20;99.90
48728;DHT22;34527;45.618;5.130;2024-02-23T10:30:49;10.10;99.90
48728;DHT22;34527;45.618;5.130;2024-02-23T10:33:14;10.20;99.90
48728;DHT22;34527;45.618;5.130;2024-02-23T10:35:42;10.30;99.90
48728;DHT22;34527;45.618;5.130;2024-02-23T10:38:08;10.30;99.90
48728;DHT22;34527;45.618;5.130;2024-02-23T10:40:39;10.30;99.90
48728;DHT22;34527;45.618;5.130;2024-02-23T10:43:10;10.40;99.90
48728;DHT22;34527;45.618;5.130;2024-02-23T10:45:37;10.50;99.90
48728;DHT22;34527;45.618;5.130;2024-02-23T10:48:14;10.50;99.90
48728;DHT22;34527;45.618;5.130;2024-02-23T10:50:41;10.60;99.90
48728;DHT22;34527;45.618;5.130;2024-02-23T10:53:10;10.60;99.90
48728;DHT22;34527;45.618;5.130;2024-02-23T10:55:37;10.60;99.90
48728;DHT22;34527;45.618;5.130;2024-02-23T10:58:09;10.70;99.90
48728;DHT22;34527;45.618;5.130;2024-02-23T11:00:37;10.80;99.90
48728;DHT22;34527;45.618;5.130;2024-02-23T11:03:03;10.80;99.90
48728;DHT22;34527;45.618;5.130;2024-02-23T11:05:30;10.90;99.90
48728;DHT22;34527;45.618;5.130;2024-02-23T11:07:56;10.90;99.90
48728;DHT22;34527;45.618;5.130;2024-02-23T11:10:22;10.90;99.90
48728;DHT22;34527;45.618;5.130;2024-02-23T11:13:00;10.90;99.90
48728;DHT22;34527;45.618;5.130;2024-02-23T11:15:26;10.70;99.90
48728;DHT22;34527;45.618;5.130;2024-02-23T11:17:52;10.70;99.90
48728;DHT22;34527;45.618;5.130;2024-02-23T11:20:18;10.70;99.90
48728;DHT22;34527;45.618;5.130;2024-02-23T11:22:44;10.70;99.90
48728;DHT22;34527;45.618;5.130;2024-02-23T11:25:09;10.70;99.90
48728;DHT22;34527;45.618;5.130;2024-02-23T11:27:38;10.80;99.90
48728;DHT22;34527;45.618;5.130;2024-02-23T11:30:08;10.90;99.90
48728;DHT22;34527;45.618;5.130;2024-02-23T11:32:41;10.70;99.90
48728;DHT22;34527;45.618;5.130;2024-02-23T11:35:10;10.70;99.90
48728;DHT22;34527;45.618;5.130;2024-02-23T11:37:49;10.60;99.90
48728;DHT22;34527;45.618;5.130;2024-02-23T11:40:22;10.60;99.90
48728;DHT22;34527;45.618;5.130;2024-02-23T11:42:48;10.60;99.90
48728;DHT22;34527;45.618;5.130;2024-02-23T11:45:13;10.70;99.90
48728;DHT22;34527;45.618;5.130;2024-02-23T11:47:39;10.70;99.90
48728;DHT22;34527;45.618;5.130;2024-02-23T11:50:08;10.80;99.90
48728;DHT22;34527;45.618;5.130;2024-02-23T11:52:34;11.00;99.90
48728;DHT22;34527;45.618;5.130;2024-02-23T11:55:00;11.10;99.90
48728;DHT22;34527;45.618;5.130;2024-02-23T11:57:25;10.90;99.90
48728;DHT22;34527;45.618;5.130;2024-02-23T11:59:52;11.00;99.90
48728;DHT22;34527;45.618;5.130;2024-02-23T12:02:17;11.10;99.90
48728;DHT22;34527;45.618;5.130;2024-02-23T12:04:43;11.10;99.90
48728;DHT22;34527;45.618;5.130;2024-02-23T12:07:09;11.10;99.90
48728;DHT22;34527;45.618;5.130;2024-02-23T12:09:35;11.40;99.90
48728;DHT22;34527;45.618;5.130;2024-02-23T12:12:01;11.50;99.90
48728;DHT22;34527;45.618;5.130;2024-02-23T12:14:27;11.80;99.90
48728;DHT22;34527;45.618;5.130;2024-02-23T12:16:52;11.70;99.90
48728;DHT22;34527;45.618;5.130;2024-02-23T12:19:18;11.60;99.90
48728;DHT22;34527;45.618;5.130;2024-02-23T12:21:46;11.40;99.90
48728;DHT22;34527;45.618;5.130;2024-02-23T12:24:12;11.30;99.90
48728;DHT22;34527;45.618;5.130;2024-02-23T12:26:38;11.30;99.90
48728;DHT22;34527;45.618;5.130;2024-02-23T12:29:04;11.40;99.90
48728;DHT22;34527;45.618;5.130;2024-02-23T12:31:31;11.40;99.90
48728;DHT22;34527;45.618;5.130;2024-02-23T12:33:57;11.40;99.90
48728;DHT22;34527;45.618;5.130;2024-02-23T12:36:23;11.30;99.90
48728;DHT22;34527;45.618;5.130;2024-02-23T12:38:49;11.20;99.90
48728;DHT22;34527;45.618;5.130;2024-02-23T12:41:15;11.30;99.90
48728;DHT22;34527;45.618;5.130;2024-02-23T12:43:40;11.40;99.90
48728;DHT22;34527;45.618;5.130;2024-02-23T12:46:06;11.50;99.90
48728;DHT22;34527;45.618;5.130;2024-02-23T12:48:33;11.40;99.90
48728;DHT22;34527;45.618;5.130;2024-02-23T12:50:59;11.40;99.90
48728;DHT22;34527;45.618;5.130;2024-02-23T12:53:36;11.40;99.90
48728;DHT22;34527;45.618;5.130;2024-02-23T12:56:04;11.50;99.90
48728;DHT22;34527;45.618;5.130;2024-02-23T12:58:31;11.40;99.90
48728;DHT22;34527;45.618;5.130;2024-02-23T13:00:57;11.30;99.90
48728;DHT22;34527;45.618;5.130;2024-02-23T13:03:24;11.30;99.90
48728;DHT22;34527;45.618;5.130;2024-02-23T13:05:50;11.30;99.90
48728;DHT22;34527;45.618;5.130;2024-02-23T13:08:16;11.30;99.90
48728;DHT22;34527;45.618;5.130;2024-02-23T13:10:42;11.40;99.90
48728;DHT22;34527;45.618;5.130;2024-02-23T13:13:07;11.50;99.90
48728;DHT22;34527;45.618;5.130;2024-02-23T13:15:33;11.50;99.90
48728;DHT22;34527;45.618;5.130;2024-02-23T13:17:58;11.40;99.90
48728;DHT22;34527;45.618;5.130;2024-02-23T13:20:24;11.50;99.90
48728;DHT22;34527;45.618;5.130;2024-02-23T13:22:50;11.50;99.90
48728;DHT22;34527;45.618;5.130;2024-02-23T13:25:15;11.50;99.90
48728;DHT22;34527;45.618;5.130;2024-02-23T13:27:41;11.40;99.90
48728;DHT22;34527;45.618;5.130;2024-02-23T13:30:07;11.30;99.90
48728;DHT22;34527;45.618;5.130;2024-02-23T13:32:33;11.20;99.90
48728;DHT22;34527;45.618;5.130;2024-02-23T13:34:58;11.20;99.90
48728;DHT22;34527;45.618;5.130;2024-02-23T13:37:24;11.30;99.90
48728;DHT22;34527;45.618;5.130;2024-02-23T13:39:51;11.20;99.90
48728;DHT22;34527;45.618;5.130;2024-02-23T13:42:17;11.30;99.90
48728;DHT22;34527;45.618;5.130;2024-02-23T13:44:42;11.30;99.90
48728;DHT22;34527;45.618;5.130;2024-02-23T13:47:08;11.30;99.90
48728;DHT22;34527;45.618;5.130;2024-02-23T13:49:34;11.30;99.90
48728;DHT22;34527;45.618;5.130;2024-02-23T13:51:59;11.20;99.90
48728;DHT22;34527;45.618;5.130;2024-02-23T13:54:25;11.20;99.90
48728;DHT22;34527;45.618;5.130;2024-02-23T13:56:50;11.10;99.90
48728;DHT22;34527;45.618;5.130;2024-02-23T13:59:16;10.90;99.90
48728;DHT22;34527;45.618;5.130;2024-02-23T14:01:41;10.80;99.90
48728;DHT22;34527;45.618;5.130;2024-02-23T14:04:07;10.80;99.90
48728;DHT22;34527;45.618;5.130;2024-02-23T14:06:33;10.90;99.90
48728;DHT22;34527;45.618;5.130;2024-02-23T14:08:59;11.00;99.90
48728;DHT22;34527;45.618;5.130;2024-02-23T14:11:24;11.00;99.90
48728;DHT22;34527;45.618;5.130;2024-02-23T14:13:50;11.00;99.90
48728;DHT22;34527;45.618;5.130;2024-02-23T14:16:16;10.90;99.90
48728;DHT22;34527;45.618;5.130;2024-02-23T14:18:42;10.80;99.90
48728;DHT22;34527;45.618;5.130;2024-02-23T14:21:10;10.90;99.90
48728;DHT22;34527;45.618;5.130;2024-02-23T14:23:36;11.00;99.90
48728;DHT22;34527;45.618;5.130;2024-02-23T14:26:03;10.90;99.90
48728;DHT22;34527;45.618;5.130;2024-02-23T14:28:29;10.90;99.90
48728;DHT22;34527;45.618;5.130;2024-02-23T14:30:54;10.90;99.90
48728;DHT22;34527;45.618;5.130;2024-02-23T14:33:20;10.90;99.90
48728;DHT22;34527;45.618;5.130;2024-02-23T14:35:46;10.90;99.90
48728;DHT22;34527;45.618;5.130;2024-02-23T14:38:12;10.90;99.90
48728;DHT22;34527;45.618;5.130;2024-02-23T14:40:37;10.90;99.90
48728;DHT22;34527;45.618;5.130;2024-02-23T14:43:04;10.90;99.90
48728;DHT22;34527;45.618;5.130;2024-02-23T14:45:30;10.80;99.90
48728;DHT22;34527;45.618;5.130;2024-02-23T14:47:56;10.80;99.90
48728;DHT22;34527;45.618;5.130;2024-02-23T14:50:23;10.70;99.90
48728;DHT22;34527;45.618;5.130;2024-02-23T14:52:49;10.60;99.90
48728;DHT22;34527;45.618;5.130;2024-02-23T14:55:15;10.50;99.90
48728;DHT22;34527;45.618;5.130;2024-02-23T14:57:40;10.40;99.90
48728;DHT22;34527;45.618;5.130;2024-02-23T15:00:06;10.30;99.90
48728;DHT22;34527;45.618;5.130;2024-02-23T15:02:33;10.20;99.90
48728;DHT22;34527;45.618;5.130;2024-02-23T15:04:58;10.20;99.90
48728;DHT22;34527;45.618;5.130;2024-02-23T15:07:24;10.00;99.90
48728;DHT22;34527;45.618;5.130;2024-02-23T15:09:49;10.00;99.90
48728;DHT22;34527;45.618;5.130;2024-02-23T15:12:15;9.40;99.90
48728;DHT22;34527;45.618;5.130;2024-02-23T15:14:41;9.00;99.90
48728;DHT22;34527;45.618;5.130;2024-02-23T15:17:07;8.50;99.90
48728;DHT22;34527;45.618;5.130;2024-02-23T15:19:33;8.50;99.90
48728;DHT22;34527;45.618;5.130;2024-02-23T15:21:59;8.40;99.90
48728;DHT22;34527;45.618;5.130;2024-02-23T15:24:24;8.50;99.90
48728;DHT22;34527;45.618;5.130;2024-02-23T15:26:50;8.60;99.90
48728;DHT22;34527;45.618;5.130;2024-02-23T15:29:17;8.70;99.90
48728;DHT22;34527;45.618;5.130;2024-02-23T15:31:43;8.80;99.90
48728;DHT22;34527;45.618;5.130;2024-02-23T15:34:10;8.80;99.90